Time;durP1;ratioP1;P1;durP2;ratioP2;P2;SDS_P1;SDS_P2;PMS_P1;PMS_P2;Temp;Humidity;BMP_temperature;BMP_pressure;BME280_temperature;BME280_humidity;BME280_pressure;Samples;Min_cycle;Max_cycle;Signal;HPM_P1;HPM_P2
2022/04/21 00:00:59;;;;;;;9.00;7.85;;;;;;;4.72;86.27;98741.41;1692738;83;21090;-74
2022/04/21 00:03:26;;;;;;;10.58;8.20;;;;;;;4.71;86.28;98741.02;1701098;83;21146;-73
2022/04/21 00:05:54;;;;;;;9.53;8.20;;;;;;;4.69;86.28;98740.20;1697836;83;21620;-72
2022/04/21 00:08:22;;;;;;;14.70;8.88;;;;;;;4.69;86.27;98745.84;1697685;83;21024;-73
2022/04/21 00:10:48;;;;;;;12.18;8.80;;;;;;;4.67;86.23;98731.54;1696621;83;21011;-73
2022/04/21 00:13:16;;;;;;;9.65;8.35;;;;;;;4.66;86.24;98735.06;1696094;83;21074;-74
2022/04/21 00:15:45;;;;;;;11.33;8.23;;;;;;;4.65;86.24;98735.94;1686649;83;21136;-73
2022/04/21 00:18:13;;;;;;;9.40;7.97;;;;;;;4.66;86.23;98740.27;1709240;83;21507;-74
2022/04/21 00:20:41;;;;;;;10.70;7.80;;;;;;;4.66;86.26;98740.27;1695047;83;21166;-75
2022/04/21 00:25:58;;;;;;;9.75;7.53;;;;;;;4.63;86.31;98734.66;1719186;83;21083;-74
2022/04/21 00:28:26;;;;;;;9.55;8.05;;;;;;;4.64;86.26;98737.70;1702873;83;21193;-73
2022/04/21 00:30:53;;;;;;;11.08;9.05;;;;;;;4.66;86.27;98735.06;1707025;83;21174;-75
2022/04/21 00:33:21;;;;;;;14.40;9.38;;;;;;;4.65;86.31;98736.78;1713548;83;21095;-74
2022/04/21 00:35:48;;;;;;;12.00;9.05;;;;;;;4.65;86.33;98739.84;1706097;83;21078;-74
2022/04/21 00:38:16;;;;;;;10.88;8.40;;;;;;;4.65;86.29;98738.54;1691309;83;20999;-73
2022/04/21 00:40:42;;;;;;;8.58;7.75;;;;;;;4.66;86.27;98729.84;1713049;82;21827;-73
2022/04/21 00:43:10;;;;;;;9.80;8.60;;;;;;;4.65;86.34;98730.72;1713020;83;21066;-74
2022/04/21 00:45:38;;;;;;;11.70;8.68;;;;;;;4.62;86.41;98739.91;1697492;83;21086;-73
2022/04/21 00:48:05;;;;;;;11.80;9.25;;;;;;;4.60;86.44;98735.19;1695614;83;21092;-73
2022/04/21 00:50:37;;;;;;;14.18;9.00;;;;;;;4.61;86.43;98736.91;1713953;83;21123;-74
2022/04/21 00:53:04;;;;;;;13.25;9.68;;;;;;;4.61;86.49;98735.61;1710981;83;21149;-74
2022/04/21 00:55:31;;;;;;;13.10;9.18;;;;;;;4.61;86.43;98739.52;1701841;83;21122;-73
2022/04/21 00:57:58;;;;;;;11.22;9.15;;;;;;;4.61;86.44;98727.80;1709023;83;22231;-75
2022/04/21 01:00:25;;;;;;;10.35;9.10;;;;;;;4.64;86.37;98726.42;1703935;83;21537;-73
2022/04/21 01:02:53;;;;;;;11.50;9.80;;;;;;;4.62;86.39;98725.58;1708687;83;21102;-74
2022/04/21 01:05:28;;;;;;;12.70;9.80;;;;;;;4.59;86.42;98716.10;1711746;83;21154;-75
2022/04/21 01:07:57;;;;;;;9.80;8.80;;;;;;;4.56;86.42;98725.73;1693560;83;22250;-73
2022/04/21 01:10:26;;;;;;;10.55;8.68;;;;;;;4.55;86.43;98717.50;1711727;83;21620;-73
2022/04/21 01:12:53;;;;;;;13.90;9.60;;;;;;;4.49;86.48;98709.82;1712498;83;21047;-73
2022/04/21 01:15:21;;;;;;;10.30;8.70;;;;;;;4.47;86.61;98705.94;1704918;83;21011;-74
2022/04/21 01:17:54;;;;;;;11.45;9.23;;;;;;;4.48;86.69;98709.43;1694863;83;21711;-74
2022/04/21 01:20:23;;;;;;;11.78;9.30;;;;;;;4.54;86.65;98710.56;1678031;83;21617;-74
2022/04/21 01:22:50;;;;;;;15.63;10.10;;;;;;;4.54;86.62;98713.17;1685988;83;21079;-74
2022/04/21 01:25:17;;;;;;;14.75;9.28;;;;;;;4.53;86.59;98713.63;1711141;83;21087;-73
2022/04/21 01:27:45;;;;;;;13.75;10.00;;;;;;;4.52;86.56;98711.05;1691994;83;21574;-74
2022/04/21 01:30:13;;;;;;;17.50;10.35;;;;;;;4.53;86.57;98710.17;1696462;83;21130;-74
2022/04/21 01:32:43;;;;;;;11.83;9.78;;;;;;;4.54;86.52;98715.78;1707893;83;21130;-73
2022/04/21 01:35:11;;;;;;;13.53;10.35;;;;;;;4.53;86.48;98710.17;1713512;83;21085;-74
2022/04/21 01:43:10;;;;;;;12.80;9.60;;;;;;;4.46;86.48;98705.09;1703605;82;21272;-75
2022/04/21 01:45:38;;;;;;;13.90;9.88;;;;;;;4.42;86.56;98695.66;1714369;83;21082;-74
2022/04/21 01:48:07;;;;;;;14.73;9.68;;;;;;;4.43;86.64;98704.31;1707420;83;22394;-75
2022/04/21 01:50:35;;;;;;;10.28;8.55;;;;;;;4.44;86.65;98699.07;1703995;83;21518;-73
2022/04/21 01:53:02;;;;;;;12.03;9.50;;;;;;;4.45;86.64;98699.49;1708891;83;21558;-73
2022/04/21 01:55:30;;;;;;;13.40;8.70;;;;;;;4.44;86.69;98691.26;1712661;83;20992;-74
2022/04/21 01:57:57;;;;;;;12.25;9.65;;;;;;;4.43;86.77;98692.14;1697616;83;21000;-73
2022/04/21 02:00:23;;;;;;;12.60;9.28;;;;;;;4.41;86.81;98693.08;1697847;83;21608;-74
2022/04/21 02:02:49;;;;;;;10.72;9.25;;;;;;;4.40;86.91;98694.80;1709082;83;21636;-74
2022/04/21 02:05:16;;;;;;;11.73;9.45;;;;;;;4.38;86.99;98687.48;1711322;83;21134;-73
2022/04/21 02:07:44;;;;;;;12.98;9.78;;;;;;;4.40;87.02;98691.36;1709214;83;21598;-75
2022/04/21 02:10:14;;;;;;;11.18;9.10;;;;;;;4.38;87.08;98686.17;1690550;83;21047;-73
2022/04/21 02:12:41;;;;;;;11.80;9.65;;;;;;;4.40;87.08;98691.36;1716081;83;22048;-74
2022/04/21 02:15:10;;;;;;;11.57;9.58;;;;;;;4.40;87.14;98689.59;1718807;82;21083;-75
2022/04/21 02:17:36;;;;;;;16.50;9.90;;;;;;;4.41;87.21;98690.02;1708525;83;21130;-73
2022/04/21 02:20:05;;;;;;;13.48;9.45;;;;;;;4.43;87.14;98680.42;1713930;83;21194;-73
2022/04/21 02:22:32;;;;;;;11.95;9.95;;;;;;;4.46;87.05;98683.41;1710881;83;21625;-74
2022/04/21 02:24:58;;;;;;;13.90;9.75;;;;;;;4.46;87.00;98681.66;1703166;83;21542;-73
2022/04/21 02:27:26;;;;;;;12.43;10.08;;;;;;;4.48;86.95;98683.37;1715771;83;21502;-74
2022/04/21 02:29:54;;;;;;;14.55;9.98;;;;;;;4.46;86.89;98680.35;1714170;83;21704;-73
2022/04/21 02:32:22;;;;;;;12.43;9.55;;;;;;;4.48;86.80;98676.86;1711665;83;22172;-73
2022/04/21 02:34:48;;;;;;;11.65;9.70;;;;;;;4.51;86.75;98685.91;1702303;83;21134;-74
2022/04/21 02:37:15;;;;;;;12.35;9.58;;;;;;;4.51;86.78;98684.16;1705260;83;21190;-74
2022/04/21 02:39:42;;;;;;;14.23;10.38;;;;;;;4.52;86.78;98686.31;1706965;83;22478;-73
2022/04/21 02:42:09;;;;;;;11.33;9.28;;;;;;;4.52;86.78;98679.80;1700062;83;21062;-73
2022/04/21 02:44:38;;;;;;;12.78;9.78;;;;;;;4.54;86.73;98685.82;1716313;83;21193;-75
2022/04/21 02:47:08;;;;;;;14.83;11.08;;;;;;;4.53;86.68;98686.73;1710706;83;21557;-73
2022/04/21 02:49:36;;;;;;;12.00;10.28;;;;;;;4.49;86.71;98682.47;1706548;83;21001;-74
2022/04/21 02:52:09;;;;;;;12.58;10.50;;;;;;;4.43;86.82;98684.33;1703656;83;21059;-74
2022/04/21 02:57:22;;;;;;;12.60;10.85;;;;;;;4.42;86.95;98681.33;1676855;83;21812;-75
2022/04/21 02:59:55;;;;;;;15.60;11.60;;;;;;;4.37;86.99;98676.67;1714987;83;23152;-73
2022/04/21 03:02:22;;;;;;;12.00;9.70;;;;;;;4.36;87.06;98681.45;1692455;83;21006;-74
2022/04/21 03:04:52;;;;;;;13.88;10.93;;;;;;;4.38;87.09;98682.27;1710717;82;37781;-74
2022/04/21 03:07:22;;;;;;;12.20;10.50;;;;;;;4.38;87.14;98680.97;1716789;83;21113;-74
2022/04/21 03:09:53;;;;;;;15.43;12.35;;;;;;;4.36;87.16;98684.06;1706581;83;21748;-74
2022/04/21 03:12:26;;;;;;;16.48;11.38;;;;;;;4.35;87.22;98682.34;1717654;82;21000;-74
2022/04/21 03:14:55;;;;;;;16.12;11.38;;;;;;;4.38;87.20;98682.27;1694514;83;21071;-74
2022/04/21 03:17:22;;;;;;;19.05;12.60;;;;;;;4.40;87.15;98682.23;1703976;83;21104;-74
2022/04/21 03:19:48;;;;;;;18.55;12.43;;;;;;;4.39;87.20;98682.70;1714073;83;21058;-74
2022/04/21 03:25:03;;;;;;;18.10;11.97;;;;;;;4.41;87.18;98683.51;1718555;82;26044;-75
2022/04/21 03:27:31;;;;;;;14.50;11.90;;;;;;;4.42;87.16;98680.45;1716057;83;21079;-74
2022/04/21 03:29:59;;;;;;;15.20;11.18;;;;;;;4.41;87.17;98683.51;1704368;83;21166;-74
2022/04/21 03:32:29;;;;;;;16.93;12.03;;;;;;;4.40;87.21;98684.39;1696556;81;21103;-73
2022/04/21 03:34:56;;;;;;;16.20;12.47;;;;;;;4.39;87.14;98682.70;1702856;83;21156;-74
2022/04/21 03:37:23;;;;;;;18.77;12.20;;;;;;;4.41;87.14;98677.00;1707254;83;21048;-74
2022/04/21 03:39:51;;;;;;;17.70;11.80;;;;;;;4.40;87.33;98679.18;1692855;83;21051;-74
2022/04/21 03:42:31;;;;;;;16.75;11.90;;;;;;;4.40;87.32;98681.78;1701990;83;21062;-74
2022/04/21 03:44:57;;;;;;;17.17;12.05;;;;;;;4.40;87.26;98684.84;1713632;82;21580;-73
2022/04/21 03:47:25;;;;;;;16.93;11.57;;;;;;;4.40;87.24;98688.30;1709425;83;21247;-75
2022/04/21 03:49:52;;;;;;;15.55;11.78;;;;;;;4.41;87.29;98691.32;1710867;83;21064;-74
2022/04/21 03:52:19;;;;;;;16.52;11.30;;;;;;;4.43;87.33;98688.69;1714771;83;21067;-74
2022/04/21 03:54:45;;;;;;;14.10;11.48;;;;;;;4.45;87.37;98684.29;1716135;83;21150;-74
2022/04/21 03:57:12;;;;;;;15.43;11.28;;;;;;;4.49;87.37;98683.34;1704853;83;21079;-74
2022/04/21 03:59:39;;;;;;;15.98;11.97;;;;;;;4.48;87.37;98679.02;1695167;83;21210;-74
2022/04/21 04:02:07;;;;;;;12.70;10.95;;;;;;;4.48;87.28;98680.77;1695570;83;21095;-74
2022/04/21 04:04:36;;;;;;;14.78;10.90;;;;;;;4.47;87.38;98685.11;1708144;83;21554;-73
2022/04/21 04:12:37;;;;;;;15.13;11.78;;;;;;;4.51;87.42;98685.46;1695839;83;21050;-73
2022/04/21 04:15:05;;;;;;;14.03;11.45;;;;;;;4.51;87.36;98680.70;1707676;83;21201;-74
2022/04/21 04:17:33;;;;;;;15.80;11.25;;;;;;;4.50;87.36;98688.09;1707625;83;21127;-74
2022/04/21 04:20:00;;;;;;;13.25;11.90;;;;;;;4.50;87.39;98686.80;1712934;83;21084;-74
2022/04/21 04:22:28;;;;;;;13.53;11.22;;;;;;;4.49;87.36;98686.38;1712790;83;21520;-73
2022/04/21 04:24:56;;;;;;;12.30;11.00;;;;;;;4.48;87.32;98687.28;1709906;83;21148;-73
2022/04/21 04:27:24;;;;;;;14.55;11.30;;;;;;;4.50;87.34;98696.77;1702326;83;21122;-75
2022/04/21 04:29:51;;;;;;;15.05;12.03;;;;;;;4.52;87.39;98697.58;1704348;83;21090;-74
2022/04/21 04:32:20;;;;;;;14.00;11.93;;;;;;;4.51;87.33;98695.03;1700317;83;21078;-74
2022/04/21 04:34:47;;;;;;;14.05;11.25;;;;;;;4.51;87.33;98696.34;1711371;83;21102;-74
2022/04/21 04:37:13;;;;;;;12.25;10.40;;;;;;;4.50;87.27;98702.42;1702585;83;21190;-74
2022/04/21 04:39:41;;;;;;;14.23;11.57;;;;;;;4.49;87.28;98705.91;1718900;83;21145;-74
2022/04/21 04:42:17;;;;;;;12.98;10.80;;;;;;;4.47;87.49;98709.85;1695433;83;21142;-74
2022/04/21 04:44:45;;;;;;;13.95;10.35;;;;;;;4.45;87.33;98702.09;1703324;82;21013;-74
2022/04/21 04:47:13;;;;;;;13.55;10.93;;;;;;;4.49;87.16;98709.82;1713592;82;21514;-74
2022/04/21 04:49:42;;;;;;;16.50;10.65;;;;;;;4.48;87.09;98707.67;1708629;83;21075;-74
2022/04/21 04:52:09;;;;;;;19.37;12.15;;;;;;;4.45;86.93;98704.70;1711412;83;21223;-74
2022/04/21 04:54:36;;;;;;;17.70;11.68;;;;;;;4.43;86.81;98703.86;1717786;83;21198;-73
2022/04/21 04:57:04;;;;;;;14.30;10.38;;;;;;;4.43;86.72;98705.62;1702929;82;21075;-73
2022/04/21 04:59:30;;;;;;;14.13;10.18;;;;;;;4.44;86.70;98699.07;1714982;83;21481;-74
2022/04/21 05:01:58;;;;;;;13.60;10.65;;;;;;;4.45;86.62;98706.43;1716793;83;20999;-75
2022/04/21 05:04:26;;;;;;;14.68;11.00;;;;;;;4.44;86.53;98722.52;1701110;83;21527;-75
2022/04/21 05:06:55;;;;;;;14.78;10.95;;;;;;;4.43;86.38;98714.73;1712263;83;21675;-73
2022/04/21 05:09:24;;;;;;;13.70;10.90;;;;;;;4.41;86.33;98716.06;1713635;82;21066;-73
2022/04/21 05:11:55;;;;;;;15.88;10.98;;;;;;;4.39;86.35;98721.77;1704314;83;21157;-73
2022/04/21 05:14:24;;;;;;;15.08;10.82;;;;;;;4.38;86.27;98719.19;1708528;83;21010;-73
2022/04/21 05:16:52;;;;;;;13.55;10.25;;;;;;;4.38;86.16;98729.16;1706303;83;21082;-74
2022/04/21 05:19:20;;;;;;;18.37;10.85;;;;;;;4.34;86.08;98726.22;1714550;83;21112;-74
2022/04/21 05:21:49;;;;;;;13.48;10.75;;;;;;;4.33;86.12;98718.44;1700889;83;21074;-74
2022/04/21 05:24:17;;;;;;;14.33;10.78;;;;;;;4.32;86.23;98725.41;1707385;83;22226;-75
2022/04/21 05:26:47;;;;;;;13.72;10.55;;;;;;;4.33;86.25;98719.28;1702997;82;22216;-74
2022/04/21 05:32:03;;;;;;;16.23;11.45;;;;;;;4.37;86.17;98718.34;1717419;82;21161;-73
2022/04/21 05:34:31;;;;;;;15.35;11.57;;;;;;;4.38;86.18;98713.98;1727955;81;21688;-75
2022/04/21 05:37:01;;;;;;;14.28;11.78;;;;;;;4.38;86.30;98723.94;1717020;81;21035;-75
2022/04/21 05:39:28;;;;;;;15.80;12.40;;;;;;;4.37;86.21;98725.28;1730275;81;21154;-74
2022/04/21 05:42:00;;;;;;;18.32;13.30;;;;;;;4.35;86.16;98733.13;1732943;81;21550;-74
2022/04/21 05:44:29;;;;;;;16.55;12.47;;;;;;;4.34;86.20;98727.52;1726385;81;21576;-74
2022/04/21 05:46:59;;;;;;;18.20;12.25;;;;;;;4.33;86.20;98727.09;1718587;82;21166;-75
2022/04/21 05:49:28;;;;;;;17.85;12.35;;;;;;;4.35;86.28;98733.13;1727242;81;21105;-74
2022/04/21 05:51:55;;;;;;;16.42;12.58;;;;;;;4.34;86.20;98727.52;1720793;81;21188;-73
2022/04/21 05:54:23;;;;;;;18.40;13.50;;;;;;;4.34;86.29;98726.22;1695849;83;21122;-74
2022/04/21 05:56:51;;;;;;;20.48;13.08;;;;;;;4.36;86.26;98726.19;1713616;83;21047;-73
2022/04/21 05:59:18;;;;;;;16.87;12.93;;;;;;;4.39;86.25;98732.19;1716415;82;21064;-74
2022/04/21 06:01:44;;;;;;;18.15;12.75;;;;;;;4.41;86.17;98723.88;1697266;83;21174;-74
2022/04/21 06:04:11;;;;;;;15.03;12.30;;;;;;;4.41;86.10;98726.94;1708828;83;21152;-75
2022/04/21 06:06:39;;;;;;;18.50;12.73;;;;;;;4.42;85.95;98720.82;1719054;83;21237;-73
2022/04/21 06:09:06;;;;;;;18.20;12.98;;;;;;;4.44;85.88;98726.88;1707835;83;21466;-75
2022/04/21 06:11:34;;;;;;;16.02;12.55;;;;;;;4.48;85.77;98730.27;1704026;83;21141;-74
2022/04/21 06:14:01;;;;;;;17.23;13.10;;;;;;;4.49;85.82;98734.14;1707274;83;21059;-74
2022/04/21 06:16:28;;;;;;;17.23;12.65;;;;;;;4.49;85.79;98726.33;1696333;83;21933;-75
2022/04/21 06:18:56;;;;;;;18.45;12.90;;;;;;;4.52;85.69;98735.34;1702567;83;21063;-74
2022/04/21 06:21:24;;;;;;;15.93;12.28;;;;;;;4.56;85.64;98734.86;1716225;83;21101;-74
2022/04/21 06:23:51;;;;;;;16.50;12.55;;;;;;;4.57;85.60;98733.95;1697380;83;21142;-75
2022/04/21 06:26:19;;;;;;;17.65;12.58;;;;;;;4.61;85.74;98727.80;1689422;83;21067;-75
2022/04/21 06:28:47;;;;;;;15.53;12.63;;;;;;;4.65;85.78;98729.42;1694329;83;21211;-74
2022/04/21 06:31:14;;;;;;;17.15;12.07;;;;;;;4.71;85.61;98733.20;1690362;83;21092;-75
2022/04/21 06:33:41;;;;;;;14.53;12.20;;;;;;;4.74;85.49;98730.52;1713545;83;21354;-74
2022/04/21 06:36:07;;;;;;;16.57;11.78;;;;;;;4.77;85.26;98733.03;1693087;83;21131;-74
2022/04/21 06:38:35;;;;;;;20.88;11.18;;;;;;;4.76;85.12;98727.88;1711958;82;21530;-74
2022/04/21 06:41:02;;;;;;;17.60;11.55;;;;;;;4.78;85.03;98736.06;1720287;83;21106;-74
2022/04/21 06:49:03;;;;;;;23.10;12.07;;;;;;;4.89;85.17;98747.98;1713287;83;21113;-74
2022/04/21 06:51:30;;;;;;;18.85;11.85;;;;;;;4.92;84.84;98746.61;1708930;83;21604;-74
2022/04/21 06:53:57;;;;;;;19.35;12.35;;;;;;;4.96;84.77;98745.63;1714526;83;21952;-74
2022/04/21 06:56:24;;;;;;;17.30;12.18;;;;;;;4.98;84.55;98750.37;1707848;83;21432;-74
2022/04/21 06:58:51;;;;;;;14.73;11.50;;;;;;;4.99;84.45;98744.25;1712265;83;21008;-74
2022/04/21 07:01:19;;;;;;;16.57;12.23;;;;;;;5.02;84.50;98743.73;1701564;83;21003;-74
2022/04/21 07:03:47;;;;;;;18.57;12.45;;;;;;;5.10;84.52;98742.25;1712943;83;21106;-74
2022/04/21 07:06:14;;;;;;;15.10;12.45;;;;;;;5.16;84.36;98740.80;1704695;83;21213;-74
2022/04/21 07:08:41;;;;;;;17.35;13.10;;;;;;;5.20;84.24;98742.42;1706570;83;21189;-73
2022/04/21 07:11:08;;;;;;;16.25;12.23;;;;;;;5.24;84.27;98743.20;1711381;83;21067;-74
2022/04/21 07:13:36;;;;;;;17.10;11.73;;;;;;;5.32;83.98;98748.23;1695672;83;21038;-73
2022/04/21 07:16:03;;;;;;;16.62;12.33;;;;;;;5.36;83.64;98747.23;1717637;83;21042;-73
2022/04/21 07:18:30;;;;;;;16.95;12.10;;;;;;;5.40;83.38;98748.89;1708699;83;21519;-73
2022/04/21 07:20:57;;;;;;;16.17;11.70;;;;;;;5.44;83.24;98747.05;1718007;83;21051;-73
2022/04/21 07:23:24;;;;;;;16.70;12.28;;;;;;;5.46;83.06;98750.02;1702602;83;21043;-75
2022/04/21 07:25:52;;;;;;;19.07;12.43;;;;;;;5.51;82.97;98745.53;1684455;83;21609;-74
2022/04/21 07:28:19;;;;;;;17.87;13.30;;;;;;;5.55;82.61;98746.33;1690359;83;21080;-74
2022/04/21 07:30:46;;;;;;;18.00;13.13;;;;;;;5.56;82.28;98741.08;1705481;83;22138;-74
2022/04/21 07:33:14;;;;;;;16.80;13.25;;;;;;;5.56;82.28;98748.91;1695091;83;21702;-73
2022/04/21 07:35:41;;;;;;;16.90;12.28;;;;;;;5.61;82.07;98746.61;1698040;82;21147;-74
2022/04/21 07:38:09;;;;;;;18.62;12.95;;;;;;;5.67;82.11;98752.98;1677514;83;21067;-74
2022/04/21 07:40:38;;;;;;;17.17;13.48;;;;;;;5.70;82.08;98749.83;1712484;83;21118;-74
2022/04/21 07:43:08;;;;;;;16.90;12.50;;;;;;;5.75;81.95;98755.78;1718211;82;21594;-74
2022/04/21 07:45:38;;;;;;;23.18;13.55;;;;;;;5.80;81.89;98757.39;1710732;82;21708;-74
2022/04/21 07:48:05;;;;;;;15.15;12.70;;;;;;;5.84;81.89;98762.50;1717547;83;21067;-73
2022/04/21 07:50:33;;;;;;;18.20;14.30;;;;;;;5.87;81.87;98757.20;1710618;83;21182;-74
2022/04/21 07:53:14;;;;;;;20.82;14.80;;;;;;;5.89;81.73;98766.30;1702415;82;21645;-74
2022/04/21 07:55:42;;;;;;;19.90;14.53;;;;;;;5.88;81.59;98768.03;1717515;83;21439;-74
2022/04/21 07:58:10;;;;;;;21.82;14.50;;;;;;;5.90;81.47;98770.17;1711556;83;21012;-74
2022/04/21 08:00:38;;;;;;;19.15;15.43;;;;;;;5.93;81.36;98771.40;1713248;83;21166;-74
2022/04/21 08:03:06;;;;;;;22.25;16.00;;;;;;;5.90;81.25;98774.09;1695786;83;21122;-74
2022/04/21 08:05:34;;;;;;;21.02;15.08;;;;;;;5.90;81.23;98772.78;1710577;82;21087;-74
2022/04/21 08:08:04;;;;;;;20.70;15.25;;;;;;;5.90;81.02;98774.52;1718522;83;21103;-73
2022/04/21 08:10:30;;;;;;;21.40;15.93;;;;;;;5.93;81.03;98780.53;1710474;83;20967;-74
2022/04/21 08:12:59;;;;;;;21.80;16.10;;;;;;;5.93;81.05;98779.23;1708415;83;21629;-73
2022/04/21 08:15:28;;;;;;;20.30;16.07;;;;;;;5.93;80.97;98775.73;1710925;83;21024;-74
2022/04/21 08:17:57;;;;;;;21.52;15.88;;;;;;;5.93;80.86;98789.67;1714864;83;21669;-74
2022/04/21 08:20:25;;;;;;;20.80;16.02;;;;;;;5.94;80.82;98783.53;1680136;83;21251;-74
2022/04/21 08:22:52;;;;;;;20.02;15.63;;;;;;;5.98;80.68;98797.84;1704910;83;21123;-74
2022/04/21 08:33:36;;;;;;;21.35;15.88;;;;;;;6.00;80.36;98799.53;1706871;83;20177;-74
2022/04/21 08:36:05;;;;;;;20.00;15.72;;;;;;;5.99;80.33;98803.03;1713662;82;21157;-75
2022/04/21 08:38:34;;;;;;;22.40;15.28;;;;;;;5.99;80.28;98802.19;1715112;83;22024;-74
2022/04/21 08:41:07;;;;;;;19.77;15.53;;;;;;;6.00;80.00;98799.96;1708904;82;21442;-74
2022/04/21 08:43:34;;;;;;;17.95;15.08;;;;;;;6.01;80.04;98805.60;1719048;82;21090;-73
2022/04/21 08:46:00;;;;;;;22.17;16.23;;;;;;;6.08;79.97;98807.14;1719550;83;21318;-75
2022/04/21 08:48:28;;;;;;;22.95;16.10;;;;;;;6.17;79.95;98806.89;1691889;83;21503;-75
2022/04/21 08:50:56;;;;;;;19.20;15.40;;;;;;;6.28;80.09;98806.13;1693619;83;21060;-74
2022/04/21 08:53:27;;;;;;;19.70;14.87;;;;;;;6.40;79.66;98802.30;1697393;83;21071;-74
2022/04/21 08:55:55;;;;;;;18.12;14.68;;;;;;;6.52;79.52;98803.70;1646980;85;21097;-73
2022/04/21 08:58:22;;;;;;;16.95;14.15;;;;;;;6.67;79.28;98811.11;1716654;83;21593;-74
2022/04/21 09:00:51;;;;;;;17.40;14.13;;;;;;;6.79;79.02;98812.92;1700182;83;22199;-74
2022/04/21 09:03:17;;;;;;;19.77;14.60;;;;;;;6.87;78.47;98814.85;1693981;83;21063;-74
2022/04/21 09:05:44;;;;;;;14.58;12.90;;;;;;;6.88;77.82;98813.96;1644716;85;21037;-74
2022/04/21 09:08:26;;;;;;;17.07;13.75;;;;;;;6.88;77.35;98809.58;1694773;82;21146;-74
2022/04/21 09:11:13;;;;;;;21.30;13.90;;;;;;;6.89;76.90;98816.95;1710660;82;20996;-75
2022/04/21 09:13:43;;;;;;;16.17;12.40;;;;;;;6.92;76.95;98813.41;1679150;83;21110;-74
2022/04/21 09:16:12;;;;;;;16.15;12.03;;;;;;;6.96;76.63;98821.13;1691024;83;21067;-75
2022/04/21 09:18:45;;;;;;;15.85;11.97;;;;;;;7.01;76.55;98824.88;1712104;83;21031;-74
2022/04/21 09:21:16;;;;;;;14.83;11.70;;;;;;;7.04;76.38;98819.13;1670684;83;21703;-74
2022/04/21 09:23:45;;;;;;;15.85;12.70;;;;;;;7.11;76.26;98817.17;1688311;83;21321;-75
2022/04/21 09:26:21;;;;;;;19.70;13.08;;;;;;;7.15;76.24;98817.92;1694024;83;21336;-74
2022/04/21 09:28:56;;;;;;;18.82;14.10;;;;;;;7.16;76.05;98817.88;1693037;83;21166;-74
2022/04/21 09:31:26;;;;;;;20.12;13.50;;;;;;;7.21;76.31;98819.89;1695590;83;21146;-74
2022/04/21 09:33:55;;;;;;;17.92;12.68;;;;;;;7.30;76.30;98827.05;1664315;83;20996;-73
2022/04/21 09:36:22;;;;;;;18.50;12.90;;;;;;;7.35;75.40;98824.67;1664525;83;22486;-74
2022/04/21 09:38:59;;;;;;;17.00;12.10;;;;;;;7.36;75.01;98829.02;1640571;83;21008;-74
2022/04/21 09:41:28;;;;;;;12.10;10.75;;;;;;;7.33;74.72;98821.26;1702019;83;21108;-74
2022/04/21 09:46:07;;;;;;;11.95;10.40;;;;;;;7.30;74.43;98827.89;1688775;83;21087;-75
2022/04/21 09:46:34;;;;;;;14.30;11.18;;;;;;;7.29;74.29;98828.79;1707660;82;21125;-75
2022/04/21 09:49:01;;;;;;;13.43;10.53;;;;;;;7.30;74.17;98830.52;1719339;81;21247;-74
2022/04/21 09:51:29;;;;;;;17.62;10.85;;;;;;;7.31;73.86;98826.97;1722603;82;21055;-75
2022/04/21 09:54:03;;;;;;;14.60;10.88;;;;;;;7.28;73.92;98830.14;1695855;81;21142;-74
2022/04/21 09:56:34;;;;;;;14.87;10.82;;;;;;;7.22;74.26;98833.83;1716451;83;21106;-75
2022/04/21 09:59:14;;;;;;;15.85;11.10;;;;;;;7.21;74.74;98842.56;1710954;83;21213;-74
2022/04/21 10:01:42;;;;;;;17.00;11.10;;;;;;;7.19;74.61;98842.61;1702478;83;21864;-74
2022/04/21 10:04:11;;;;;;;15.53;11.38;;;;;;;7.18;74.51;98841.38;1710231;83;21078;-74
2022/04/21 10:06:39;;;;;;;18.00;11.08;;;;;;;7.17;74.62;98844.89;1716332;83;21059;-74
2022/04/21 10:09:06;;;;;;;14.63;10.00;;;;;;;7.13;74.57;98840.20;1690516;83;21700;-74
2022/04/21 10:11:38;;;;;;;13.93;10.50;;;;;;;7.08;74.48;98848.66;1714628;83;21056;-74
2022/04/21 10:14:05;;;;;;;15.18;9.65;;;;;;;7.01;74.68;98854.52;1720248;83;22238;-74
2022/04/21 10:16:34;;;;;;;12.00;9.33;;;;;;;6.97;74.58;98854.20;1707402;83;21110;-74
2022/04/21 10:19:01;;;;;;;12.55;9.95;;;;;;;6.91;74.52;98862.25;1704404;83;21077;-74
2022/04/21 10:21:48;;;;;;;13.70;9.30;;;;;;;6.84;75.03;98863.31;1712220;83;21527;-74
2022/04/21 10:24:26;;;;;;;14.33;10.18;;;;;;;6.80;75.26;98866.94;1711221;82;21515;-74
2022/04/21 10:26:53;;;;;;;15.15;10.15;;;;;;;6.81;75.44;98867.35;1704122;83;21613;-75
2022/04/21 10:29:25;;;;;;;17.00;10.55;;;;;;;6.77;75.45;98869.64;1712142;83;21067;-74
2022/04/21 10:32:05;;;;;;;15.58;10.05;;;;;;;6.73;75.64;98871.95;1712763;82;21317;-74
2022/04/21 10:34:43;;;;;;;14.95;10.32;;;;;;;6.72;75.93;98876.76;1702242;83;21036;-73
2022/04/21 10:37:20;;;;;;;14.50;10.63;;;;;;;6.75;76.01;98882.75;1711609;83;22381;-75
2022/04/21 10:40:14;;;;;;;13.62;9.93;;;;;;;6.80;76.14;98875.63;1700223;83;21080;-75
2022/04/21 10:42:58;;;;;;;15.93;10.65;;;;;;;6.86;75.84;98885.06;1706516;83;21051;-74
2022/04/21 10:45:32;;;;;;;13.08;9.78;;;;;;;6.89;75.62;98884.95;1697369;83;21095;-75
2022/04/21 10:48:14;;;;;;;12.93;9.05;;;;;;;6.89;75.64;98890.18;1684351;83;21074;-74
2022/04/21 10:50:44;;;;;;;13.90;9.40;;;;;;;6.89;75.48;98888.87;1695064;83;21534;-75
2022/04/21 10:58:47;;;;;;;8.90;7.45;;;;;;;6.78;75.17;98887.05;1710259;83;21032;-75
2022/04/21 11:01:22;;;;;;;8.20;7.33;;;;;;;6.69;75.23;98892.06;1709835;83;20991;-75
2022/04/21 11:04:09;;;;;;;9.40;7.70;;;;;;;6.63;75.70;98901.42;1715140;83;21186;-74
2022/04/21 11:06:47;;;;;;;9.03;7.62;;;;;;;6.56;76.01;98900.73;1717809;82;21542;-73
2022/04/21 11:09:35;;;;;;;9.50;7.03;;;;;;;6.57;76.09;98893.73;1715568;82;21976;-73
2022/04/21 11:12:04;;;;;;;8.45;7.08;;;;;;;6.62;76.24;98895.34;1697218;83;21040;-74
2022/04/21 11:14:36;;;;;;;11.03;8.70;;;;;;;6.63;76.32;98891.80;1707723;83;21592;-74
2022/04/21 11:17:09;;;;;;;12.28;8.63;;;;;;;6.64;76.21;98899.19;1709093;83;21133;-74
2022/04/21 11:19:40;;;;;;;8.73;7.08;;;;;;;6.64;76.22;98901.38;1700683;83;21072;-72
2022/04/21 11:22:08;;;;;;;12.90;9.05;;;;;;;6.68;76.34;98910.83;1705313;83;21082;-74
2022/04/21 11:24:59;;;;;;;12.50;9.75;;;;;;;6.76;76.25;98907.12;1688866;83;21035;-74
2022/04/21 11:27:26;;;;;;;15.38;10.03;;;;;;;6.80;76.11;98906.16;1715542;83;21082;-74
2022/04/21 11:29:59;;;;;;;10.63;9.55;;;;;;;6.80;75.68;98910.08;1705309;82;21622;-73
2022/04/21 11:32:25;;;;;;;11.63;9.70;;;;;;;6.79;75.71;98919.69;1699517;83;21134;-73
2022/04/21 11:34:59;;;;;;;12.98;9.73;;;;;;;6.78;75.82;98917.13;1714443;83;21111;-74
2022/04/21 11:37:54;;;;;;;11.25;9.25;;;;;;;6.76;75.75;98909.74;1699790;81;21125;-75
2022/04/21 11:40:35;;;;;;;12.07;8.85;;;;;;;6.75;75.89;98913.28;1710623;83;21040;-75
2022/04/21 11:43:14;;;;;;;12.47;9.80;;;;;;;6.78;76.10;98906.66;1707596;83;21055;-74
2022/04/21 11:45:54;;;;;;;13.28;9.85;;;;;;;6.79;75.99;98911.84;1699933;83;21154;-74
2022/04/21 11:48:21;;;;;;;14.15;8.75;;;;;;;6.84;76.16;98913.00;1673270;83;20991;-73
2022/04/21 11:50:50;;;;;;;12.35;8.68;;;;;;;6.88;75.86;98909.41;1710961;83;21482;-74
2022/04/21 11:53:20;;;;;;;9.98;8.80;;;;;;;6.88;75.76;98916.80;1708477;82;21084;-73
2022/04/21 11:55:48;;;;;;;10.48;9.20;;;;;;;6.87;75.58;98911.14;1711350;83;21153;-74
2022/04/21 11:58:36;;;;;;;13.83;11.12;;;;;;;6.85;75.47;98915.57;1716732;83;21235;-74
2022/04/21 12:06:55;;;;;;;10.65;9.55;;;;;;;6.76;75.46;98923.70;1694832;83;21596;-74
2022/04/21 12:09:25;;;;;;;11.63;10.40;;;;;;;6.72;75.37;98923.82;1699460;83;21506;-74
2022/04/21 12:11:57;;;;;;;10.50;9.40;;;;;;;6.75;75.71;98927.66;1703617;83;21185;-74
2022/04/21 12:14:24;;;;;;;11.10;9.28;;;;;;;6.79;75.67;98922.73;1685837;83;21068;-74
2022/04/21 12:16:57;;;;;;;12.75;9.40;;;;;;;6.84;75.84;98928.26;1714577;83;21122;-74
2022/04/21 12:19:45;;;;;;;8.93;7.87;;;;;;;6.89;75.48;98928.10;1716485;82;21546;-75
2022/04/21 12:22:19;;;;;;;9.20;8.28;;;;;;;6.86;75.05;98930.83;1675529;83;21064;-74
2022/04/21 12:24:50;;;;;;;9.48;8.48;;;;;;;6.84;75.08;98928.69;1709640;83;21169;-74
2022/04/21 12:27:20;;;;;;;9.30;7.85;;;;;;;6.83;75.11;98932.22;1699265;83;21059;-75